KTUS/TUS METAR and TAF weather

Enter ICAO airport designator
Station Type Date Time Source
KTUS METAR 2021/03/05 18:53 UTC NOAA

KTUS 051853Z 11013G33KT 10SM CLR 23/M06 A3013 RMK AO2 PK WND 14033/1850 SLP174 T02331061


Station Type Date Time Source
KTUS Decoded METAR 2021/03/05 18:53 UTC NOAA

TUCSON INTERNATIONAL AIRPORT , AZ, United States (KTUS) 32-08N 110-57W 786M
Mar 05, 2021 - 01:53 PM EST / 2021.03.05 1853 UTC
Wind: from the ESE (110 degrees) at 15 MPH (13 KT) gusting to 38 MPH (33 KT):0
Visibility: 10 mile(s):0
Sky conditions: clear
Temperature: 73.9 F (23.3 C)
Dew Point: 21.0 F (-6.1 C)
Relative Humidity: 13%
Pressure (altimeter): 30.13 in. Hg (1020 hPa)
ob: KTUS 051853Z 11013G33KT 10SM CLR 23/M06 A3013 RMK AO2 PK WND 14033/1850 SLP174 T02331061
cycle: 19

Station Type Date Time Source
KTUS TAF 2021/03/05 18:40 UTC NOAA

TAF KTUS 051738Z 0518/0618 14005KT P6SM SKC
FM052000 09012G22KT P6SM SKC
FM060600 11015G25KT P6SM SKC
FM061500 13018G28KT P6SM FEW250

Example: see airport list